createdAt,value
2018-07-01T00:00:52.374Z,71.44
2018-07-01T00:03:56.849Z,70.88
2018-07-01T00:07:01.285Z,71.29
2018-07-01T00:10:07.433Z,71.37
2018-07-01T00:13:11.861Z,71.57
2018-07-01T00:16:16.331Z,71.80
2018-07-01T00:19:20.789Z,72.42
2018-07-01T00:22:25.261Z,72.75
2018-07-01T00:25:29.713Z,72.81
2018-07-01T00:28:34.429Z,72.27
2018-07-01T00:31:38.872Z,72.72
2018-07-01T00:34:43.026Z,73.08
2018-07-01T00:37:47.473Z,73.61
2018-07-01T00:40:52.073Z,73.38
2018-07-01T00:43:56.499Z,73.67
2018-07-01T00:47:00.985Z,74.16
2018-07-01T00:50:06.951Z,74.14
2018-07-01T00:53:11.694Z,74.14
2018-07-01T00:56:16.306Z,74.34
2018-07-01T00:59:21.219Z,74.51
2018-07-01T01:02:25.985Z,73.78
2018-07-01T01:05:30.693Z,74.61
2018-07-01T01:08:35.288Z,74.76
2018-07-01T01:11:40.287Z,74.51
2018-07-01T01:14:45.799Z,75.55
2018-07-01T01:17:50.855Z,75.55
2018-07-01T01:20:55.444Z,75.82
2018-07-01T01:24:00.177Z,76.82
2018-07-01T01:27:04.910Z,77.13
2018-07-01T01:30:09.502Z,77.07
2018-07-01T01:33:14.066Z,77.21
2018-07-01T01:36:18.859Z,77.41
2018-07-01T01:39:29.642Z,78.27
2018-07-01T01:43:44.393Z,78.81
2018-07-01T01:46:53.327Z,78.53
2018-07-01T01:50:02.241Z,78.94
2018-07-01T01:53:13.224Z,78.71
2018-07-01T01:56:24.982Z,79.52
2018-07-01T01:59:40.625Z,79.12
2018-07-01T02:02:53.040Z,79.59
2018-07-01T02:06:01.553Z,79.21
2018-07-01T02:09:13.027Z,79.12
2018-07-01T02:12:18.104Z,78.55
2018-07-01T02:15:26.242Z,78.66
2018-07-01T02:18:31.081Z,78.73
2018-07-01T02:21:36.133Z,78.48
2018-07-01T02:24:43.696Z,78.53
2018-07-01T02:27:48.677Z,79.10
2018-07-01T02:30:53.439Z,79.14
2018-07-01T02:33:58.269Z,79.82
2018-07-01T02:37:03.055Z,79.37
2018-07-01T02:40:08.555Z,80.10
2018-07-01T02:43:13.482Z,79.71
2018-07-01T02:46:18.114Z,80.15
2018-07-01T02:49:22.777Z,80.79
2018-07-01T02:52:27.490Z,80.53
2018-07-01T02:55:32.179Z,80.36
2018-07-01T02:58:36.799Z,81.04
2018-07-01T03:01:41.418Z,80.52
2018-07-01T03:04:46.194Z,80.77
2018-07-01T03:07:50.927Z,81.09
2018-07-01T03:10:55.755Z,80.43
2018-07-01T03:14:00.681Z,81.10
2018-07-01T03:17:05.609Z,81.53
2018-07-01T03:20:10.694Z,82.22
2018-07-01T03:23:16.384Z,82.58
2018-07-01T03:26:21.067Z,82.10
2018-07-01T03:29:26.120Z,82.75
2018-07-01T03:32:30.850Z,82.62
2018-07-01T03:35:35.630Z,83.92
2018-07-01T03:38:40.271Z,83.48
2018-07-01T03:41:45.028Z,84.00
2018-07-01T03:44:50.050Z,83.29
2018-07-01T03:47:54.713Z,83.37
2018-07-01T03:50:59.447Z,83.61
2018-07-01T03:54:04.274Z,83.69
2018-07-01T03:57:09.014Z,83.04
2018-07-01T04:00:13.579Z,83.12
2018-07-01T04:03:18.187Z,82.62
2018-07-01T04:06:22.941Z,82.84
2018-07-01T04:09:31.732Z,82.39
2018-07-01T04:12:36.498Z,82.63
2018-07-01T04:15:41.114Z,83.66
2018-07-01T04:18:46.302Z,84.26
2018-07-01T04:21:51.020Z,83.99
2018-07-01T04:24:55.721Z,85.17
2018-07-01T04:28:00.214Z,85.45
2018-07-01T04:31:04.926Z,85.14
2018-07-01T04:34:09.490Z,85.13
2018-07-01T04:37:14.208Z,84.38
2018-07-01T04:40:18.901Z,84.53
2018-07-01T04:43:23.541Z,84.77
2018-07-01T04:46:28.168Z,85.71
2018-07-01T04:49:32.749Z,85.04
2018-07-01T04:52:37.554Z,86.69
2018-07-01T04:55:42.235Z,86.70
2018-07-01T04:58:47.072Z,86.41
2018-07-01T05:01:51.887Z,85.49
2018-07-01T05:04:56.474Z,84.92
2018-07-01T05:08:01.503Z,84.78
2018-07-01T05:11:06.265Z,83.74
2018-07-01T05:14:10.863Z,83.03
2018-07-01T05:17:15.870Z,82.67
2018-07-01T05:20:20.438Z,81.91
2018-07-01T05:23:24.781Z,80.03
2018-07-01T05:26:29.675Z,78.34
2018-07-01T05:29:34.349Z,76.66
2018-07-01T05:32:39.155Z,75.59
2018-07-01T05:35:43.777Z,75.45
2018-07-01T05:38:48.759Z,74.70
2018-07-01T05:41:53.545Z,72.77
2018-07-01T05:44:58.392Z,70.35
2018-07-01T05:48:02.955Z,68.47
2018-07-01T05:51:07.755Z,69.63
2018-07-01T05:54:12.716Z,65.59
2018-07-01T05:57:17.475Z,65.79
2018-07-01T06:00:22.389Z,63.06
2018-07-01T06:03:28.303Z,62.64
2018-07-01T06:06:46.015Z,62.45
2018-07-01T06:09:50.928Z,61.15
2018-07-01T06:12:55.920Z,60.11
2018-07-01T06:16:06.327Z,55.47
2018-07-01T06:19:17.630Z,56.69
2018-07-01T06:22:23.071Z,57.26
2018-07-01T06:25:44.336Z,56.71
2018-07-01T06:28:55.809Z,55.65
2018-07-01T06:32:16.333Z,52.86
2018-07-01T06:37:09.811Z,53.25
2018-07-01T07:07:44.832Z,45.67
2018-07-01T07:10:49.413Z,46.01
2018-07-01T07:13:53.805Z,46.16
2018-07-01T07:16:58.201Z,44.39
2018-07-01T07:20:02.741Z,44.02
2018-07-01T07:23:07.328Z,44.23
2018-07-01T07:26:11.697Z,43.70
2018-07-01T07:29:16.072Z,43.65
2018-07-01T07:32:20.430Z,42.27
2018-07-01T07:35:24.976Z,40.36
2018-07-01T07:38:29.345Z,41.68
2018-07-01T07:41:33.544Z,42.17
2018-07-01T07:44:37.894Z,40.76
2018-07-01T07:47:42.253Z,40.44
2018-07-01T07:50:46.628Z,39.99
2018-07-01T07:53:51.042Z,39.34
2018-07-01T07:56:55.459Z,38.94
2018-07-01T07:59:59.964Z,37.71
2018-07-01T08:03:04.677Z,37.34
2018-07-01T08:06:09.146Z,38.55
2018-07-01T08:09:13.789Z,36.34
2018-07-01T08:12:18.207Z,38.54
2018-07-01T08:15:22.594Z,37.90
2018-07-01T08:18:26.994Z,37.16
2018-07-01T08:21:31.971Z,37.41
2018-07-01T08:24:36.613Z,37.32
2018-07-01T08:27:40.977Z,35.63
2018-07-01T08:30:45.348Z,35.20
2018-07-01T08:33:49.708Z,36.04
2018-07-01T08:36:54.096Z,37.23
2018-07-01T08:39:58.560Z,36.72
2018-07-01T08:43:02.951Z,35.14
2018-07-01T08:46:07.345Z,36.28
2018-07-01T08:49:11.713Z,33.86
2018-07-01T08:52:16.608Z,35.96
2018-07-01T08:55:21.655Z,34.70
2018-07-01T08:58:28.340Z,34.51
2018-07-01T09:01:34.353Z,33.93
2018-07-01T09:04:39.190Z,34.50
2018-07-01T09:07:43.762Z,33.72
2018-07-01T09:10:48.721Z,33.67
2018-07-01T09:13:53.744Z,34.47
2018-07-01T09:16:59.734Z,34.06
2018-07-01T09:20:05.426Z,33.51
2018-07-01T09:23:11.486Z,33.38
2018-07-01T09:26:17.323Z,33.03
2018-07-01T09:29:23.099Z,33.23
2018-07-01T09:32:28.666Z,33.56
2018-07-01T09:35:33.167Z,34.78
2018-07-01T09:38:37.691Z,34.44
2018-07-01T09:41:42.210Z,32.85
2018-07-01T09:44:46.730Z,35.05
2018-07-01T09:47:51.249Z,32.42
2018-07-01T09:50:56.965Z,33.49
2018-07-01T09:54:01.965Z,33.80
2018-07-01T09:57:06.482Z,33.99
2018-07-01T10:00:11.001Z,33.42
2018-07-01T10:03:15.617Z,33.69
2018-07-01T10:06:19.767Z,32.20
2018-07-01T10:09:24.382Z,32.37
2018-07-01T10:12:28.798Z,34.49
2018-07-01T10:15:33.228Z,34.45
2018-07-01T10:18:38.254Z,33.75
2018-07-01T10:21:42.680Z,35.34
2018-07-01T10:24:47.105Z,31.81
2018-07-01T10:27:51.529Z,34.05
2018-07-01T10:30:55.938Z,32.63
2018-07-01T10:34:00.443Z,32.30
2018-07-01T10:37:04.917Z,33.00
2018-07-01T10:40:09.399Z,33.33
2018-07-01T10:43:13.824Z,33.36
2018-07-01T10:46:18.004Z,33.31
2018-07-01T10:49:22.434Z,32.57
2018-07-01T10:52:26.905Z,33.79
2018-07-01T10:55:31.338Z,31.40
2018-07-01T10:58:35.794Z,32.14
2018-07-01T11:01:40.225Z,34.09
2018-07-01T11:04:44.764Z,33.12
2018-07-01T11:07:49.224Z,34.29
2018-07-01T11:10:53.701Z,34.34
2018-07-01T11:13:58.169Z,35.07
2018-07-01T11:17:02.650Z,34.20
2018-07-01T11:20:07.277Z,34.00
2018-07-01T11:23:11.772Z,35.81
2018-07-01T11:26:16.341Z,34.97
2018-07-01T11:29:21.276Z,34.96
2018-07-01T11:32:26.193Z,35.43
2018-07-01T11:35:31.721Z,35.85
2018-07-01T11:38:37.919Z,34.73
2018-07-01T11:41:42.588Z,34.18
2018-07-01T11:44:46.981Z,33.74
2018-07-01T11:47:51.425Z,33.50
2018-07-01T11:50:55.965Z,33.49
2018-07-01T11:54:00.362Z,34.41
2018-07-01T11:57:04.949Z,33.43
2018-07-01T12:00:09.788Z,34.70
2018-07-01T12:03:14.193Z,35.17
2018-07-01T12:06:18.681Z,35.45
2018-07-01T12:09:23.141Z,35.47
2018-07-01T12:12:27.560Z,34.88
2018-07-01T12:15:31.995Z,33.61
2018-07-01T12:18:36.477Z,35.54
2018-07-01T12:21:40.934Z,34.67
2018-07-01T12:24:45.385Z,34.60
2018-07-01T12:27:49.858Z,34.73
2018-07-01T12:30:54.344Z,34.77
2018-07-01T12:33:58.463Z,34.15
2018-07-01T12:37:02.873Z,34.84
2018-07-01T12:40:07.426Z,34.68
2018-07-01T12:43:11.917Z,34.57
2018-07-01T12:46:16.386Z,34.65
2018-07-01T12:49:20.865Z,35.08
2018-07-01T12:52:26.530Z,33.46
2018-07-01T12:55:32.006Z,34.79
2018-07-01T12:58:36.473Z,34.03
2018-07-01T13:01:40.918Z,34.02
2018-07-01T13:04:46.684Z,33.28
2018-07-01T13:07:52.338Z,33.72
2018-07-01T13:10:59.073Z,34.32
2018-07-01T13:14:05.474Z,33.93
2018-07-01T13:17:10.385Z,34.12
2018-07-01T13:20:14.902Z,33.82
2018-07-01T13:23:21.530Z,33.64
2018-07-01T13:26:26.153Z,33.13
2018-07-01T13:29:30.632Z,33.59
2018-07-01T13:32:35.185Z,32.08
2018-07-01T13:35:39.722Z,32.93
2018-07-01T13:38:45.369Z,32.89
2018-07-01T13:41:51.509Z,32.42
2018-07-01T13:44:58.143Z,32.18
2018-07-01T13:48:04.390Z,32.70
2018-07-01T13:51:09.510Z,32.42
2018-07-01T13:54:14.385Z,31.91
2018-07-01T13:57:20.826Z,31.82
2018-07-01T14:00:29.056Z,32.32
2018-07-01T14:03:34.318Z,32.49
2018-07-01T14:06:39.750Z,31.60
2018-07-01T14:09:45.050Z,31.15
2018-07-01T14:12:49.677Z,31.34
2018-07-01T14:15:57.015Z,31.35
2018-07-01T14:19:02.689Z,31.65
2018-07-01T14:22:10.915Z,32.34
2018-07-01T14:25:21.597Z,32.52
2018-07-01T14:28:31.162Z,30.75
2018-07-01T14:31:49.106Z,30.55
2018-07-01T14:34:58.777Z,31.33
2018-07-01T14:38:04.594Z,30.61
2018-07-01T14:41:09.808Z,30.31
2018-07-01T14:44:16.133Z,30.22
2018-07-01T14:47:22.213Z,29.80
2018-07-01T14:50:27.880Z,29.08
2018-07-01T14:53:34.818Z,29.11
2018-07-01T14:56:40.325Z,28.70
2018-07-01T14:59:46.558Z,28.88
2018-07-01T15:02:52.766Z,28.20
2018-07-01T15:05:57.738Z,27.72
2018-07-01T15:09:03.289Z,27.17
2018-07-01T15:12:13.270Z,26.78
2018-07-01T15:15:18.290Z,26.77
2018-07-01T15:18:23.634Z,26.83
2018-07-01T15:21:28.926Z,25.49
2018-07-01T15:24:33.952Z,25.89
2018-07-01T15:27:38.530Z,26.51
2018-07-01T15:30:43.073Z,25.33
2018-07-01T15:33:47.544Z,26.25
2018-07-01T15:36:51.693Z,25.56
2018-07-01T15:39:56.177Z,24.44
2018-07-01T15:43:00.605Z,24.99
2018-07-01T15:46:05.862Z,24.47
2018-07-01T15:49:10.266Z,24.80
2018-07-01T15:52:14.763Z,25.06
2018-07-01T15:55:19.273Z,24.60
2018-07-01T15:58:23.690Z,24.46
2018-07-01T16:01:28.143Z,24.30
2018-07-01T16:04:32.574Z,25.29
2018-07-01T16:07:37.130Z,24.87
2018-07-01T16:10:41.561Z,24.66
2018-07-01T16:13:45.964Z,25.35
2018-07-01T16:16:50.500Z,25.36
2018-07-01T16:19:54.942Z,26.83
2018-07-01T16:22:59.344Z,26.50
2018-07-01T16:26:09.030Z,26.56
2018-07-01T16:29:13.417Z,28.57
2018-07-01T16:32:17.823Z,28.34
2018-07-01T16:35:22.300Z,29.40
2018-07-01T16:38:26.712Z,30.21
2018-07-01T16:41:31.075Z,30.44
2018-07-01T16:44:49.596Z,31.03
2018-07-01T16:48:00.111Z,31.51
2018-07-01T16:51:06.666Z,31.63
2018-07-01T16:54:18.132Z,31.90
2018-07-01T17:01:14.329Z,32.59
2018-07-01T17:04:19.213Z,33.92
2018-07-01T17:07:23.642Z,33.81
2018-07-01T17:10:28.075Z,33.71
2018-07-01T17:13:40.537Z,34.04
2018-07-01T17:16:56.554Z,33.05
2018-07-01T17:20:01.028Z,34.52
2018-07-01T17:23:05.449Z,35.33
2018-07-01T17:26:09.908Z,35.82
2018-07-01T17:29:14.377Z,35.54
2018-07-01T17:32:23.880Z,35.69
2018-07-01T17:35:28.882Z,34.75
2018-07-01T17:38:33.329Z,35.03
2018-07-01T17:41:38.076Z,35.73
2018-07-01T17:44:42.489Z,35.97
2018-07-01T17:47:46.892Z,36.28
2018-07-01T17:50:51.297Z,35.94
2018-07-01T17:53:57.427Z,35.33
2018-07-01T17:57:01.842Z,35.86
2018-07-01T18:00:07.564Z,35.21
2018-07-01T18:03:12.009Z,36.51
2018-07-01T18:06:16.616Z,36.25
2018-07-01T18:09:21.060Z,37.31
2018-07-01T18:12:25.592Z,37.26
2018-07-01T18:15:30.265Z,37.43
2018-07-01T18:18:34.850Z,36.54
2018-07-01T18:21:41.213Z,36.98
2018-07-01T18:25:01.540Z,36.93
2018-07-01T18:27:56.131Z,36.77
2018-07-01T18:30:52.480Z,38.11
2018-07-01T18:33:56.860Z,38.52
2018-07-01T18:37:01.390Z,37.50
2018-07-01T18:40:06.085Z,37.86
2018-07-01T18:43:10.424Z,38.64
2018-07-01T18:46:14.945Z,39.98
2018-07-01T18:49:19.296Z,39.45
2018-07-01T18:52:23.673Z,39.31
2018-07-01T18:55:28.093Z,39.55
2018-07-01T18:58:32.457Z,39.82
2018-07-01T19:01:36.925Z,39.97
2018-07-01T19:04:41.268Z,40.35
2018-07-01T19:07:45.640Z,40.72
2018-07-01T19:10:50.016Z,41.83
2018-07-01T19:13:54.480Z,42.16
2018-07-01T19:16:59.044Z,41.50
2018-07-01T19:20:03.445Z,42.44
2018-07-01T19:23:07.821Z,42.56
2018-07-01T19:26:12.225Z,43.37
2018-07-01T19:29:16.583Z,43.35
2018-07-01T19:32:21.260Z,44.87
2018-07-01T19:35:25.612Z,44.27
2018-07-01T19:38:30.405Z,45.49
2018-07-01T19:41:34.808Z,46.40
2018-07-01T19:44:39.175Z,45.92
2018-07-01T19:47:43.562Z,47.10
2018-07-01T19:50:47.974Z,47.05
2018-07-01T19:53:52.350Z,48.26
2018-07-01T19:56:56.977Z,47.31
2018-07-01T20:00:01.558Z,47.46
2018-07-01T20:03:05.953Z,47.92
2018-07-01T20:06:10.406Z,48.26
2018-07-01T20:09:15.073Z,48.80
2018-07-01T20:12:19.516Z,49.11
2018-07-01T20:15:23.852Z,49.38
2018-07-01T20:18:28.779Z,50.39
2018-07-01T20:21:33.347Z,50.89
2018-07-01T20:24:37.763Z,51.55
2018-07-01T20:27:42.125Z,51.49
2018-07-01T20:30:46.517Z,52.37
2018-07-01T20:33:50.873Z,52.65
2018-07-01T20:36:55.511Z,53.03
2018-07-01T20:40:00.140Z,52.59
2018-07-01T20:43:04.551Z,53.04
2018-07-01T20:46:09.377Z,52.79
2018-07-01T20:49:13.767Z,53.36
2018-07-01T20:52:18.178Z,54.60
2018-07-01T20:55:22.573Z,55.29
2018-07-01T20:58:26.958Z,55.70
2018-07-01T21:01:31.330Z,56.12
2018-07-01T21:04:35.739Z,57.23
2018-07-01T21:07:40.096Z,56.81
2018-07-01T21:10:44.465Z,57.82
2018-07-01T21:13:48.864Z,57.84
2018-07-01T21:16:53.270Z,57.74
2018-07-01T21:19:57.626Z,57.91
2018-07-01T21:23:02.040Z,58.67
2018-07-01T21:26:07.189Z,58.59
2018-07-01T21:29:11.889Z,59.08
2018-07-01T21:32:16.259Z,59.48
2018-07-01T21:35:20.629Z,60.13
2018-07-01T21:38:25.074Z,59.46
2018-07-01T21:41:29.408Z,60.85
2018-07-01T21:44:33.846Z,60.79
2018-07-01T21:47:38.443Z,61.44
2018-07-01T21:50:42.841Z,61.33
2018-07-01T21:53:47.222Z,60.62
2018-07-01T21:56:52.350Z,61.16
2018-07-01T21:59:56.741Z,61.47
2018-07-01T22:03:02.697Z,61.60
2018-07-01T22:06:07.924Z,61.39
2018-07-01T22:09:12.269Z,61.47
2018-07-01T22:12:33.611Z,62.25
2018-07-01T22:15:54.850Z,61.90
2018-07-01T22:18:59.345Z,63.02
2018-07-01T22:22:03.900Z,63.28
2018-07-01T22:25:08.264Z,63.66
2018-07-01T22:28:12.657Z,63.17
2018-07-01T22:31:17.029Z,64.26
2018-07-01T22:34:21.835Z,64.81
2018-07-01T22:37:26.240Z,64.51
2018-07-01T22:40:30.612Z,64.51
2018-07-01T22:43:35.017Z,64.76
2018-07-01T22:46:39.537Z,65.94
2018-07-01T22:49:43.939Z,65.73
2018-07-01T22:52:48.326Z,65.50
2018-07-01T22:55:52.728Z,66.22
2018-07-01T22:58:57.113Z,66.14
2018-07-01T23:03:16.400Z,67.34
2018-07-01T23:06:20.784Z,67.63
2018-07-01T23:09:25.154Z,67.26
2018-07-01T23:12:29.532Z,67.35
2018-07-01T23:15:33.918Z,67.83
2018-07-01T23:18:38.308Z,68.59
2018-07-01T23:21:42.724Z,68.10
2018-07-01T23:24:47.117Z,68.39
2018-07-01T23:27:51.537Z,69.15
2018-07-01T23:30:55.900Z,69.17
2018-07-01T23:34:00.303Z,68.80
2018-07-01T23:37:04.768Z,69.64
2018-07-01T23:40:09.977Z,69.45
2018-07-01T23:43:14.367Z,69.93
2018-07-01T23:46:18.762Z,70.14
2018-07-01T23:49:23.168Z,70.26
2018-07-01T23:52:27.560Z,70.74
2018-07-01T23:55:31.945Z,71.15
2018-07-01T23:58:36.329Z,71.21
